TimeCDT,TemperatureF,Dew PointF,Humidity,Sea Level PressureIn,VisibilityMPH,Wind Direction,Wind SpeedMPH,Gust SpeedMPH,PrecipitationIn,Events,Conditions,WindDirDegrees,DateUTC
12:53 AM,79.0,70.0,74,30.00,10.0,South,8.1,-,N/A,,Clear,170,2012-09-02 05:53:00
1:53 AM,78.1,70.0,76,30.00,10.0,South,3.5,-,N/A,,Clear,180,2012-09-02 06:53:00
3:53 AM,77.0,68.0,74,30.00,10.0,South,6.9,-,N/A,,Clear,180,2012-09-02 08:53:00
4:53 AM,75.9,68.0,76,30.00,10.0,South,9.2,-,N/A,,Clear,190,2012-09-02 09:53:00
5:53 AM,75.0,68.0,79,30.01,10.0,South,5.8,-,N/A,,Clear,190,2012-09-02 10:53:00
6:53 AM,73.9,68.0,82,30.02,10.0,South,4.6,-,N/A,,Clear,180,2012-09-02 11:53:00
7:53 AM,75.0,69.1,82,30.04,10.0,South,5.8,-,N/A,,Clear,180,2012-09-02 12:53:00
8:53 AM,78.1,70.0,76,30.04,10.0,South,9.2,-,N/A,,Partly Cloudy,180,2012-09-02 13:53:00
9:11 AM,78.1,70.0,76,30.10,10.0,South,11.5,16.1,N/A,,Mostly Cloudy,190,2012-09-02 14:11:00
9:53 AM,81.0,69.1,67,30.05,10.0,SSW,12.7,19.6,N/A,,Scattered Clouds,200,2012-09-02 14:53:00
10:53 AM,84.9,69.1,59,30.05,10.0,South,9.2,-,N/A,,Clear,180,2012-09-02 15:53:00
11:53 AM,89.1,66.9,48,30.04,10.0,SSW,12.7,21.9,N/A,,Clear,200,2012-09-02 16:53:00
1:53 PM,95.0,62.1,33,29.99,10.0,South,8.1,20.7,N/A,,Clear,180,2012-09-02 18:53:00
2:53 PM,96.1,62.1,32,29.96,10.0,South,11.5,19.6,N/A,,Clear,190,2012-09-02 19:53:00
3:53 PM,97.0,61.0,30,29.93,10.0,South,11.5,23.0,N/A,,Clear,180,2012-09-02 20:53:00
4:53 PM,97.0,60.1,29,29.91,10.0,South,13.8,19.6,N/A,,Clear,180,2012-09-02 21:53:00
5:53 PM,97.0,61.0,30,29.90,10.0,SSE,8.1,16.1,N/A,,Clear,160,2012-09-02 22:53:00
6:53 PM,95.0,59.0,30,29.90,10.0,South,12.7,20.7,N/A,,Clear,180,2012-09-02 23:53:00
7:53 PM,93.0,59.0,32,29.91,10.0,South,6.9,-,N/A,,Clear,180,2012-09-03 00:53:00
8:53 PM,90.0,59.0,35,29.93,10.0,South,3.5,-,N/A,,Clear,170,2012-09-03 01:53:00
9:53 PM,87.1,57.9,37,29.94,10.0,SSE,3.5,-,N/A,,Clear,160,2012-09-03 02:53:00
10:53 PM,86.0,62.1,44,29.94,10.0,Variable,5.8,-,N/A,,Clear,0,2012-09-03 03:53:00
11:53 PM,84.0,64.0,51,29.95,10.0,South,8.1,-,N/A,,Clear,180,2012-09-03 04:53:00